Time;durP1;ratioP1;P1;durP2;ratioP2;P2;SDS_P1;SDS_P2;PMS_P1;PMS_P2;Temp;Humidity;BMP_temperature;BMP_pressure;BME280_temperature;BME280_humidity;BME280_pressure;Samples;Min_cycle;Max_cycle;Signal;HPM_P1;HPM_P2
2020/12/02 00:00:15;;;;;;;20.53;14.47;;;7.10;99.90;;;;;;5051443;28;20217;-73
2020/12/02 00:03:01;;;;;;;16.23;13.63;;;7.10;99.90;;;;;;5035107;28;20448;-71
2020/12/02 00:05:29;;;;;;;16.30;13.20;;;7.10;99.90;;;;;;5032351;28;20422;-71
2020/12/02 00:08:03;;;;;;;19.20;14.33;;;7.10;99.90;;;;;;5033757;28;20422;-73
2020/12/02 00:10:28;;;;;;;19.37;14.90;;;7.10;99.90;;;;;;5051644;28;20446;-72
2020/12/02 00:12:54;;;;;;;21.77;15.63;;;7.10;99.90;;;;;;5051576;28;20755;-72
2020/12/02 00:15:20;;;;;;;20.17;15.40;;;7.10;99.90;;;;;;5046491;28;20190;-71
2020/12/02 00:17:45;;;;;;;19.10;14.67;;;7.00;99.90;;;;;;5032226;28;20190;-73
2020/12/02 00:20:11;;;;;;;22.53;14.50;;;7.00;99.90;;;;;;5035837;28;20725;-72
2020/12/02 00:22:36;;;;;;;19.27;13.87;;;6.90;99.90;;;;;;5042544;28;20190;-72
2020/12/02 00:25:05;;;;;;;19.07;13.90;;;6.90;99.90;;;;;;5054473;28;20523;-72
2020/12/02 00:27:31;;;;;;;21.83;15.03;;;7.00;99.90;;;;;;5054852;28;20918;-72
2020/12/02 00:29:57;;;;;;;17.67;14.07;;;7.00;99.90;;;;;;5044497;28;20446;-73
2020/12/02 00:32:36;;;;;;;20.40;13.30;;;7.00;99.90;;;;;;5035985;28;20440;-71
2020/12/02 00:35:13;;;;;;;20.57;14.27;;;7.00;99.90;;;;;;5067885;28;20457;-70
2020/12/02 00:37:39;;;;;;;19.77;14.63;;;7.00;99.90;;;;;;5050026;28;20768;-71
2020/12/02 00:40:06;;;;;;;21.00;14.00;;;7.10;99.90;;;;;;5054514;28;20539;-73
2020/12/02 00:42:31;;;;;;;21.17;15.67;;;7.10;99.90;;;;;;5055983;28;20581;-70
2020/12/02 00:44:57;;;;;;;17.17;13.90;;;7.10;99.90;;;;;;5055466;28;20534;-71
2020/12/02 00:47:24;;;;;;;19.23;14.90;;;7.20;99.90;;;;;;5060630;28;20266;-71
2020/12/02 00:49:55;;;;;;;19.80;13.40;;;7.20;99.90;;;;;;5055413;28;20196;-70
2020/12/02 00:52:22;;;;;;;17.47;13.73;;;7.20;99.90;;;;;;5036658;28;20520;-71
2020/12/02 00:54:48;;;;;;;20.97;14.70;;;7.20;99.90;;;;;;5036898;28;20483;-71
2020/12/02 00:57:20;;;;;;;20.90;13.53;;;7.20;99.90;;;;;;5036316;28;20831;-71
2020/12/02 00:59:52;;;;;;;17.60;14.70;;;7.10;99.90;;;;;;5054194;28;20675;-71
2020/12/02 01:02:49;;;;;;;17.30;13.93;;;7.10;99.90;;;;;;5054289;28;20414;-71
2020/12/02 01:05:16;;;;;;;21.67;14.03;;;7.10;99.90;;;;;;5044289;28;20532;-71
2020/12/02 01:07:43;;;;;;;22.03;15.20;;;7.10;99.90;;;;;;5035041;28;20449;-71
2020/12/02 01:10:11;;;;;;;17.93;14.10;;;7.00;99.90;;;;;;5035206;28;20844;-71
2020/12/02 01:12:38;;;;;;;19.97;15.10;;;7.10;99.90;;;;;;5035067;28;20428;-71
2020/12/02 01:15:08;;;;;;;20.23;13.80;;;7.10;99.90;;;;;;5035202;28;20779;-72
2020/12/02 01:17:33;;;;;;;21.63;14.60;;;7.20;99.90;;;;;;5034798;28;20426;-71
2020/12/02 01:19:59;;;;;;;20.47;14.60;;;7.20;99.90;;;;;;5049906;28;20467;-71
2020/12/02 01:22:34;;;;;;;19.03;13.87;;;7.20;99.90;;;;;;5054225;28;20194;-71
2020/12/02 01:25:06;;;;;;;19.20;13.73;;;7.20;99.90;;;;;;5054300;28;20177;-72
2020/12/02 01:27:45;;;;;;;19.73;13.93;;;7.20;99.90;;;;;;5035061;28;20460;-72
2020/12/02 01:30:14;;;;;;;20.10;14.37;;;7.20;99.90;;;;;;5032989;28;20434;-72
2020/12/02 01:32:42;;;;;;;21.07;15.47;;;7.20;99.90;;;;;;5038390;28;20471;-72
2020/12/02 01:35:11;;;;;;;19.70;14.27;;;7.10;99.90;;;;;;5054466;28;20416;-72
2020/12/02 01:37:41;;;;;;;18.07;14.43;;;7.10;99.90;;;;;;5046633;28;20498;-71
2020/12/02 01:40:22;;;;;;;17.40;13.63;;;7.10;99.90;;;;;;5047076;28;20461;-71
2020/12/02 01:43:00;;;;;;;20.20;13.70;;;7.20;99.90;;;;;;5034659;28;20453;-71
2020/12/02 01:45:59;;;;;;;18.93;14.50;;;7.10;99.90;;;;;;5036492;28;20504;-71
2020/12/02 01:49:09;;;;;;;17.00;12.80;;;7.10;99.90;;;;;;5036191;28;20413;-71
2020/12/02 01:51:38;;;;;;;18.73;13.13;;;7.20;99.90;;;;;;5044072;28;20412;-72
2020/12/02 01:54:23;;;;;;;18.30;12.80;;;7.20;99.90;;;;;;5047676;28;20417;-72
2020/12/02 01:57:12;;;;;;;24.10;13.47;;;7.30;99.90;;;;;;5034366;28;20785;-72
2020/12/02 02:00:05;;;;;;;21.57;13.40;;;7.30;99.90;;;;;;5034310;28;20461;-72
2020/12/02 02:02:48;;;;;;;21.73;13.87;;;7.20;99.90;;;;;;5051907;28;20413;-71
2020/12/02 02:05:17;;;;;;;18.70;12.70;;;7.20;99.90;;;;;;5053935;28;20439;-71
2020/12/02 02:07:42;;;;;;;19.53;13.70;;;7.20;99.90;;;;;;5037669;28;20482;-72
2020/12/02 02:10:21;;;;;;;19.97;13.37;;;7.20;99.90;;;;;;5053772;28;20444;-72
2020/12/02 02:13:14;;;;;;;19.03;13.30;;;7.20;99.90;;;;;;5053423;28;20178;-72
2020/12/02 02:15:48;;;;;;;19.03;13.73;;;7.20;99.90;;;;;;5042933;28;20428;-72
2020/12/02 02:18:26;;;;;;;24.40;14.03;;;7.20;99.90;;;;;;5065629;28;20786;-72
2020/12/02 02:21:20;;;;;;;23.37;14.40;;;7.20;99.90;;;;;;5040583;28;20460;-71
2020/12/02 02:23:46;;;;;;;24.30;14.63;;;7.20;99.90;;;;;;5052305;28;20929;-71
2020/12/02 02:26:23;;;;;;;24.07;14.00;;;7.20;99.90;;;;;;5053277;28;20424;-72
2020/12/02 02:28:56;;;;;;;25.00;14.27;;;7.20;99.90;;;;;;5050059;28;20193;-72
2020/12/02 02:31:25;;;;;;;23.00;16.00;;;7.20;99.90;;;;;;5035892;28;20866;-72
2020/12/02 02:33:51;;;;;;;23.90;14.30;;;7.10;99.90;;;;;;5033791;28;20475;-72
2020/12/02 02:36:21;;;;;;;24.80;16.20;;;7.10;99.90;;;;;;5039860;28;20420;-72
2020/12/02 02:38:47;;;;;;;26.00;16.73;;;7.00;99.90;;;;;;5052400;28;20441;-72
2020/12/02 02:41:12;;;;;;;23.50;15.37;;;7.00;99.90;;;;;;5051711;28;20928;-72
2020/12/02 02:43:39;;;;;;;26.83;16.10;;;7.00;99.90;;;;;;5044165;28;20175;-72
2020/12/02 02:46:05;;;;;;;23.40;15.20;;;7.00;99.90;;;;;;5065713;28;20210;-72
2020/12/02 02:48:32;;;;;;;22.27;15.73;;;7.00;99.90;;;;;;5033092;28;20461;-72
2020/12/02 02:50:58;;;;;;;25.50;15.93;;;7.00;99.90;;;;;;5041387;28;20439;-72
2020/12/02 02:53:25;;;;;;;24.80;15.50;;;7.00;99.90;;;;;;5051325;28;20420;-72
2020/12/02 02:55:52;;;;;;;23.60;15.77;;;7.10;99.90;;;;;;5052785;28;20909;-72
2020/12/02 02:58:18;;;;;;;20.73;14.77;;;7.10;99.90;;;;;;5039799;28;20442;-72
2020/12/02 03:00:44;;;;;;;24.57;16.00;;;7.10;99.90;;;;;;5065212;28;20495;-72
2020/12/02 03:03:13;;;;;;;22.33;14.17;;;7.10;99.90;;;;;;5032997;28;20437;-71
2020/12/02 03:05:39;;;;;;;24.33;15.93;;;7.10;99.90;;;;;;5040769;28;20182;-72
2020/12/02 03:08:09;;;;;;;20.20;13.23;;;7.10;99.90;;;;;;5053367;28;20512;-72
2020/12/02 03:10:38;;;;;;;27.17;14.87;;;7.00;99.90;;;;;;5052277;28;20476;-72
2020/12/02 03:13:15;;;;;;;25.90;15.77;;;7.00;99.90;;;;;;5041219;28;20428;-72
2020/12/02 03:15:40;;;;;;;23.57;15.00;;;6.90;99.90;;;;;;5033396;28;20793;-72
2020/12/02 03:18:08;;;;;;;22.93;15.17;;;6.90;99.90;;;;;;5031655;28;20422;-72
2020/12/02 03:20:37;;;;;;;21.30;14.90;;;6.80;99.90;;;;;;5047253;28;20468;-72
2020/12/02 03:23:05;;;;;;;23.17;15.20;;;6.80;99.90;;;;;;5052365;28;20453;-72
2020/12/02 03:25:32;;;;;;;20.83;14.07;;;6.80;99.90;;;;;;5052707;28;20953;-72
2020/12/02 03:27:59;;;;;;;25.03;16.00;;;6.80;99.90;;;;;;5034522;28;20763;-72
2020/12/02 03:30:25;;;;;;;22.10;14.77;;;6.80;99.90;;;;;;5045905;28;20436;-72
2020/12/02 03:32:51;;;;;;;26.20;16.40;;;6.70;99.90;;;;;;5051773;28;20896;-72
2020/12/02 03:35:16;;;;;;;22.67;14.10;;;6.70;99.90;;;;;;5033159;28;20895;-72
2020/12/02 03:37:42;;;;;;;22.00;14.70;;;6.70;99.90;;;;;;5032847;28;20686;-72
2020/12/02 03:40:08;;;;;;;23.47;14.93;;;6.70;99.90;;;;;;5034749;28;20264;-72
2020/12/02 03:42:34;;;;;;;21.90;15.20;;;6.70;99.90;;;;;;5052315;28;20179;-72
2020/12/02 03:45:00;;;;;;;23.57;15.13;;;6.80;99.90;;;;;;5051900;28;20424;-72
2020/12/02 03:47:26;;;;;;;20.73;14.37;;;6.80;99.90;;;;;;5048143;28;20171;-72
2020/12/02 03:49:52;;;;;;;22.30;15.03;;;6.90;99.90;;;;;;5040587;28;20197;-72
2020/12/02 03:52:17;;;;;;;22.13;15.23;;;6.80;99.90;;;;;;5041746;28;20861;-72
2020/12/02 03:54:43;;;;;;;20.90;14.07;;;6.80;99.90;;;;;;5036636;28;20194;-72
2020/12/02 03:57:08;;;;;;;19.43;15.20;;;6.80;99.90;;;;;;5045636;28;20277;-72
2020/12/02 03:59:34;;;;;;;17.77;12.53;;;6.80;99.90;;;;;;5055698;28;20212;-71
2020/12/02 04:02:00;;;;;;;14.40;11.20;;;6.90;99.90;;;;;;5056089;28;20170;-72
2020/12/02 04:04:25;;;;;;;16.57;11.30;;;6.90;99.90;;;;;;5044377;28;20179;-72
2020/12/02 04:06:51;;;;;;;12.67;10.63;;;6.90;99.90;;;;;;5036394;28;20232;-72
2020/12/02 04:09:17;;;;;;;13.40;10.60;;;7.00;99.90;;;;;;5035838;28;20221;-72
2020/12/02 04:11:43;;;;;;;14.03;10.43;;;7.00;99.90;;;;;;5050174;28;20185;-72
2020/12/02 04:14:09;;;;;;;12.67;9.30;;;7.00;99.90;;;;;;5055853;28;20754;-72
2020/12/02 04:16:35;;;;;;;12.10;9.80;;;7.00;99.90;;;;;;5059076;28;20315;-72
2020/12/02 04:19:00;;;;;;;13.03;9.43;;;7.00;99.90;;;;;;5040973;28;20873;-72
2020/12/02 04:21:26;;;;;;;13.20;10.63;;;7.00;99.90;;;;;;5041546;28;20186;-72
2020/12/02 04:23:53;;;;;;;11.37;8.83;;;7.00;99.90;;;;;;5036319;28;20170;-72
2020/12/02 04:26:19;;;;;;;13.13;9.90;;;7.00;99.90;;;;;;5053652;28;20175;-72
2020/12/02 04:28:45;;;;;;;11.10;9.00;;;7.00;99.90;;;;;;5054996;28;20527;-72
2020/12/02 04:31:10;;;;;;;13.03;9.97;;;7.00;99.90;;;;;;5039240;28;20417;-71
2020/12/02 04:33:36;;;;;;;14.93;11.33;;;7.00;99.90;;;;;;5055798;28;20171;-72
2020/12/02 04:36:02;;;;;;;12.73;9.50;;;7.10;99.90;;;;;;5055004;28;20228;-72
2020/12/02 04:38:27;;;;;;;11.73;8.23;;;7.10;99.90;;;;;;5053180;28;20554;-72
2020/12/02 04:40:53;;;;;;;11.93;8.93;;;7.10;99.90;;;;;;5054954;28;20633;-73
2020/12/02 04:43:35;;;;;;;11.17;8.60;;;7.10;99.90;;;;;;5055456;28;20569;-72
2020/12/02 04:46:03;;;;;;;12.13;9.20;;;7.10;99.90;;;;;;5049206;28;20552;-72
2020/12/02 04:48:31;;;;;;;11.40;8.47;;;7.10;99.90;;;;;;5035984;28;20425;-72
2020/12/02 04:51:01;;;;;;;9.50;7.50;;;7.00;99.90;;;;;;5050902;28;20504;-72
2020/12/02 04:53:27;;;;;;;12.93;8.50;;;7.10;99.90;;;;;;5046629;28;20587;-72
2020/12/02 04:55:55;;;;;;;10.57;8.00;;;7.10;99.90;;;;;;5035244;28;21001;-71
2020/12/02 04:58:33;;;;;;;10.57;8.17;;;7.00;99.90;;;;;;5042923;28;20663;-71
2020/12/02 05:01:19;;;;;;;11.50;8.50;;;7.10;99.90;;;;;;5054940;28;20914;-71
2020/12/02 05:03:53;;;;;;;11.00;8.40;;;7.10;99.90;;;;;;5050251;28;20414;-72
2020/12/02 05:06:38;;;;;;;12.63;8.30;;;7.10;99.90;;;;;;5051294;28;20427;-71
2020/12/02 05:09:18;;;;;;;13.70;10.17;;;7.10;99.90;;;;;;5054417;28;20460;-72
2020/12/02 05:12:04;;;;;;;12.80;11.00;;;7.10;99.90;;;;;;5043705;28;20422;-71
2020/12/02 05:14:44;;;;;;;15.20;11.30;;;7.10;99.90;;;;;;5035778;28;20424;-72
2020/12/02 05:17:16;;;;;;;15.50;11.00;;;7.10;99.90;;;;;;5035456;28;20429;-72
2020/12/02 05:19:42;;;;;;;13.97;9.50;;;7.10;99.90;;;;;;5045358;28;20894;-72
2020/12/02 05:22:12;;;;;;;12.57;10.27;;;7.10;99.90;;;;;;5054847;28;20468;-72
2020/12/02 05:24:48;;;;;;;13.23;9.47;;;7.10;99.90;;;;;;5054524;28;20417;-72
2020/12/02 05:27:27;;;;;;;13.27;10.40;;;7.10;99.90;;;;;;5039880;28;20429;-72
2020/12/02 05:30:01;;;;;;;16.50;11.30;;;7.10;99.90;;;;;;5034950;28;20545;-72
2020/12/02 05:32:28;;;;;;;15.00;10.30;;;7.10;99.90;;;;;;5035191;28;20460;-72
2020/12/02 05:34:55;;;;;;;12.87;10.10;;;7.20;99.90;;;;;;5043113;28;20528;-72
2020/12/02 05:37:33;;;;;;;16.43;11.03;;;7.20;99.90;;;;;;5034609;28;20434;-71
2020/12/02 05:40:04;;;;;;;14.20;10.30;;;7.20;99.90;;;;;;5043408;28;20465;-72
2020/12/02 05:42:40;;;;;;;12.83;9.87;;;7.20;99.90;;;;;;5051452;28;20428;-71
2020/12/02 05:45:11;;;;;;;13.57;10.67;;;7.20;99.90;;;;;;5042897;28;20956;-71
2020/12/02 05:47:36;;;;;;;14.50;10.83;;;7.20;99.90;;;;;;5074747;28;20452;-71
2020/12/02 05:50:07;;;;;;;12.30;9.40;;;7.20;99.90;;;;;;5054171;28;20464;-71
2020/12/02 05:52:38;;;;;;;13.60;10.30;;;7.20;99.90;;;;;;5053742;28;20238;-71
2020/12/02 05:55:10;;;;;;;16.00;11.10;;;7.20;99.90;;;;;;5053607;28;20956;-71
2020/12/02 05:57:41;;;;;;;15.30;10.30;;;7.20;99.90;;;;;;5035958;28;20736;-71
2020/12/02 06:00:09;;;;;;;16.00;11.13;;;7.20;99.90;;;;;;5036189;28;21032;-71
2020/12/02 06:02:37;;;;;;;13.87;10.40;;;7.20;99.90;;;;;;5042415;28;20556;-72
2020/12/02 06:05:10;;;;;;;19.60;12.70;;;7.20;99.90;;;;;;5034300;28;20457;-71
2020/12/02 06:07:49;;;;;;;13.67;10.53;;;7.20;99.90;;;;;;5036560;28;20456;-72
2020/12/02 06:10:16;;;;;;;16.17;12.47;;;7.20;99.90;;;;;;5047362;28;20443;-73
2020/12/02 06:12:44;;;;;;;14.40;11.10;;;7.20;99.90;;;;;;5053721;28;20421;-72
2020/12/02 06:15:35;;;;;;;14.33;11.57;;;7.20;99.90;;;;;;5050010;28;20424;-72
2020/12/02 06:18:27;;;;;;;14.10;11.10;;;7.30;99.90;;;;;;5036177;28;20480;-72
2020/12/02 06:20:54;;;;;;;17.00;11.93;;;7.30;99.90;;;;;;5048162;28;20495;-72
2020/12/02 06:23:19;;;;;;;14.90;10.73;;;7.30;99.90;;;;;;5045017;28;20909;-72
2020/12/02 06:25:49;;;;;;;16.27;11.53;;;7.30;99.90;;;;;;5051068;28;20428;-72
2020/12/02 06:28:35;;;;;;;17.00;12.00;;;7.20;99.90;;;;;;5040081;28;20831;-71
2020/12/02 06:31:06;;;;;;;18.47;12.03;;;7.30;99.90;;;;;;5046668;28;20992;-71
2020/12/02 06:33:33;;;;;;;19.37;12.93;;;7.30;99.90;;;;;;5048212;28;20465;-71
2020/12/02 06:36:24;;;;;;;17.23;11.17;;;7.30;99.90;;;;;;5043752;28;20432;-71
2020/12/02 06:38:53;;;;;;;16.50;11.90;;;7.30;99.90;;;;;;5032832;28;20445;-71
2020/12/02 06:41:37;;;;;;;17.97;12.47;;;7.20;99.90;;;;;;5033997;28;20448;-72
2020/12/02 06:44:07;;;;;;;19.33;13.17;;;7.20;99.90;;;;;;5043223;28;20410;-71
2020/12/02 06:46:47;;;;;;;15.30;11.00;;;7.30;99.90;;;;;;5052819;28;20410;-71
2020/12/02 06:49:12;;;;;;;18.30;11.83;;;7.30;99.90;;;;;;5043913;28;20450;-71
2020/12/02 06:51:58;;;;;;;15.10;10.80;;;7.30;99.90;;;;;;5047294;28;20874;-71
2020/12/02 06:54:29;;;;;;;15.00;10.73;;;7.30;99.90;;;;;;5048849;28;20175;-71
2020/12/02 06:57:24;;;;;;;17.10;12.23;;;7.30;99.90;;;;;;5037336;28;20425;-71
2020/12/02 07:00:03;;;;;;;16.43;11.37;;;7.30;99.90;;;;;;5036573;28;20453;-71
2020/12/02 07:02:40;;;;;;;16.40;11.80;;;7.20;99.90;;;;;;5029392;28;20418;-71
2020/12/02 07:05:13;;;;;;;22.50;13.33;;;7.20;99.90;;;;;;5043210;28;20519;-72
2020/12/02 07:07:39;;;;;;;16.50;10.80;;;7.20;99.90;;;;;;5049653;28;20413;-72
2020/12/02 07:10:13;;;;;;;16.50;11.03;;;7.20;99.90;;;;;;5053018;28;20451;-72
2020/12/02 07:12:39;;;;;;;14.43;11.13;;;7.20;99.90;;;;;;5048535;28;20178;-71
2020/12/02 07:15:04;;;;;;;15.30;10.60;;;7.20;99.90;;;;;;5050141;28;20567;-71
2020/12/02 07:17:30;;;;;;;17.93;12.20;;;7.20;99.90;;;;;;5048462;28;20225;-71
2020/12/02 07:20:04;;;;;;;17.40;12.07;;;7.20;99.90;;;;;;5039391;28;20282;-72
2020/12/02 07:22:35;;;;;;;16.73;11.30;;;7.20;99.90;;;;;;5059053;28;20285;-72
2020/12/02 07:25:05;;;;;;;14.20;10.30;;;7.20;99.90;;;;;;5054190;28;20523;-72
2020/12/02 07:27:30;;;;;;;15.33;11.80;;;7.20;99.90;;;;;;5046921;28;20425;-72
2020/12/02 07:29:58;;;;;;;17.10;12.23;;;7.20;99.90;;;;;;5058410;28;20464;-71
2020/12/02 07:32:24;;;;;;;16.47;11.40;;;7.20;99.90;;;;;;5046755;28;20183;-70
2020/12/02 07:35:00;;;;;;;16.47;10.67;;;7.20;99.90;;;;;;5052541;28;20782;-70
2020/12/02 07:37:25;;;;;;;15.63;10.80;;;7.20;99.90;;;;;;5044048;28;20793;-71
2020/12/02 07:39:58;;;;;;;15.97;11.40;;;7.20;99.90;;;;;;5045310;28;20532;-71
2020/12/02 07:42:32;;;;;;;14.13;10.07;;;7.10;99.90;;;;;;5045136;28;20176;-71
2020/12/02 07:45:15;;;;;;;16.60;10.40;;;7.20;99.90;;;;;;5056360;28;20411;-71
2020/12/02 07:47:58;;;;;;;14.97;9.93;;;7.10;99.90;;;;;;5041343;28;20555;-71
2020/12/02 07:50:44;;;;;;;15.00;11.27;;;7.10;99.90;;;;;;5047659;28;22489;-71
2020/12/02 07:53:18;;;;;;;13.37;10.40;;;7.10;99.90;;;;;;5047477;28;20564;-72
2020/12/02 07:55:49;;;;;;;17.57;12.60;;;7.10;99.90;;;;;;5050462;28;20420;-73
2020/12/02 07:58:30;;;;;;;16.77;10.73;;;7.10;99.90;;;;;;5061803;28;20519;-71
2020/12/02 08:00:57;;;;;;;15.43;10.87;;;7.20;99.90;;;;;;5057777;28;20473;-72
2020/12/02 08:03:36;;;;;;;14.40;10.53;;;7.20;99.90;;;;;;5050929;28;20470;-72
2020/12/02 08:06:33;;;;;;;18.03;11.50;;;7.20;99.90;;;;;;5046453;28;20949;-72
2020/12/02 08:08:58;;;;;;;17.50;10.03;;;7.30;99.90;;;;;;5033010;28;20484;-72
2020/12/02 08:11:24;;;;;;;14.40;9.40;;;7.30;99.90;;;;;;5033834;28;20516;-71
2020/12/02 08:13:55;;;;;;;12.73;9.10;;;7.30;99.90;;;;;;5033564;28;20203;-70
2020/12/02 08:16:43;;;;;;;15.53;10.17;;;7.30;99.90;;;;;;5033329;28;20425;-72
2020/12/02 08:19:11;;;;;;;13.23;9.20;;;7.30;99.90;;;;;;5032942;28;21013;-71
2020/12/02 08:21:39;;;;;;;15.30;10.23;;;7.30;99.90;;;;;;5032932;28;20918;-72
2020/12/02 08:24:15;;;;;;;13.80;10.43;;;7.40;99.90;;;;;;5033191;28;20460;-72
2020/12/02 08:26:43;;;;;;;13.67;10.43;;;7.40;99.90;;;;;;4989124;28;20450;-70
2020/12/02 08:29:09;;;;;;;14.93;9.60;;;7.40;99.90;;;;;;5016432;28;20556;-70
2020/12/02 08:31:37;;;;;;;14.03;10.53;;;7.50;99.90;;;;;;5026345;28;20468;-70
2020/12/02 08:34:20;;;;;;;15.83;9.90;;;7.40;99.90;;;;;;5032226;28;20441;-70
2020/12/02 08:37:11;;;;;;;14.67;11.07;;;7.40;99.90;;;;;;5030675;28;20584;-71
2020/12/02 08:39:38;;;;;;;16.80;12.23;;;7.40;99.90;;;;;;5030383;28;20511;-71
2020/12/02 08:42:04;;;;;;;19.67;11.87;;;7.40;99.90;;;;;;5029147;28;20465;-71
2020/12/02 08:44:30;;;;;;;14.30;10.77;;;7.40;99.90;;;;;;5014354;28;20455;-71
2020/12/02 08:47:09;;;;;;;18.27;11.13;;;7.40;99.90;;;;;;5051258;28;20465;-71
2020/12/02 08:49:36;;;;;;;15.80;11.17;;;7.40;99.90;;;;;;5054499;28;20205;-71
2020/12/02 08:52:03;;;;;;;17.13;10.53;;;7.40;99.90;;;;;;5047304;28;20485;-71
2020/12/02 08:54:29;;;;;;;22.10;11.77;;;7.40;99.90;;;;;;5054321;28;20783;-71
2020/12/02 08:57:06;;;;;;;14.07;10.17;;;7.40;99.90;;;;;;5046196;28;20423;-71
2020/12/02 08:59:34;;;;;;;12.67;9.23;;;7.40;99.90;;;;;;5038558;28;20832;-70
2020/12/02 09:02:09;;;;;;;18.10;10.50;;;7.40;99.90;;;;;;5054083;28;20520;-70
2020/12/02 09:04:35;;;;;;;16.23;10.17;;;7.40;99.90;;;;;;5045767;28;20416;-70
2020/12/02 09:07:00;;;;;;;13.40;9.17;;;7.40;99.90;;;;;;5047557;28;20758;-70
2020/12/02 09:09:26;;;;;;;17.20;10.07;;;7.50;99.90;;;;;;5044519;28;20213;-70
2020/12/02 09:11:51;;;;;;;7.83;6.67;;;7.50;99.90;;;;;;5049543;28;20187;-70
2020/12/02 09:14:17;;;;;;;6.07;5.47;;;7.50;99.90;;;;;;5053876;28;20196;-70
2020/12/02 09:16:43;;;;;;;5.13;4.63;;;7.50;99.90;;;;;;5049997;28;20183;-70
2020/12/02 09:19:11;;;;;;;4.73;4.33;;;7.40;99.90;;;;;;5044403;28;20218;-70
2020/12/02 09:21:37;;;;;;;5.37;4.87;;;7.40;99.90;;;;;;5053580;28;20421;-70
2020/12/02 09:24:03;;;;;;;5.80;5.20;;;7.30;99.90;;;;;;5046247;28;20421;-71
2020/12/02 09:26:36;;;;;;;7.33;5.80;;;7.30;99.90;;;;;;5043577;28;20289;-71
2020/12/02 09:29:04;;;;;;;5.93;5.27;;;7.30;99.90;;;;;;5048479;28;20546;-71
2020/12/02 09:31:32;;;;;;;6.03;5.43;;;7.20;99.90;;;;;;5053427;28;20421;-70
2020/12/02 09:33:58;;;;;;;5.77;5.27;;;7.20;99.90;;;;;;5046038;28;20432;-71
2020/12/02 09:36:24;;;;;;;7.40;6.60;;;7.10;99.90;;;;;;5048404;28;20548;-71
2020/12/02 09:38:51;;;;;;;5.40;4.93;;;7.10;99.90;;;;;;5050843;28;20529;-69
2020/12/02 09:41:23;;;;;;;6.43;5.43;;;7.10;99.90;;;;;;5052092;28;20428;-69
2020/12/02 09:44:18;;;;;;;6.53;5.70;;;7.00;99.90;;;;;;5047643;28;20420;-71
2020/12/02 09:46:46;;;;;;;5.63;5.00;;;7.00;99.90;;;;;;5044628;28;20540;-71
2020/12/02 09:49:12;;;;;;;7.03;5.67;;;7.00;99.90;;;;;;5052121;28;20450;-71
2020/12/02 09:51:40;;;;;;;9.10;6.33;;;6.90;99.90;;;;;;5039911;28;20432;-71
2020/12/02 09:54:10;;;;;;;7.47;5.90;;;6.90;99.90;;;;;;5053644;28;20757;-70
2020/12/02 09:56:44;;;;;;;5.80;5.27;;;6.90;99.90;;;;;;5045452;28;20517;-69
2020/12/02 09:59:11;;;;;;;6.50;5.80;;;6.90;99.90;;;;;;5043988;28;20535;-70
2020/12/02 10:02:02;;;;;;;12.00;6.30;;;7.00;99.90;;;;;;5051173;28;20430;-70
2020/12/02 10:04:37;;;;;;;6.60;6.00;;;7.00;99.90;;;;;;5038961;28;20830;-70
2020/12/02 10:07:39;;;;;;;7.53;6.20;;;7.00;99.90;;;;;;5047990;28;20977;-70
2020/12/02 10:10:24;;;;;;;6.00;5.40;;;6.90;99.90;;;;;;5050474;28;20661;-71
2020/12/02 10:13:03;;;;;;;7.80;5.80;;;6.90;99.90;;;;;;5046442;28;20787;-71
2020/12/02 10:15:45;;;;;;;7.00;6.00;;;7.00;99.90;;;;;;5049275;28;20420;-71
2020/12/02 10:18:28;;;;;;;7.53;6.20;;;7.00;99.90;;;;;;5048838;28;20782;-70
2020/12/02 10:21:08;;;;;;;6.77;5.60;;;7.00;99.90;;;;;;5047022;28;20464;-71
2020/12/02 10:23:42;;;;;;;6.83;6.10;;;7.00;99.90;;;;;;5051317;28;20425;-70
2020/12/02 10:26:40;;;;;;;6.50;5.80;;;7.10;99.90;;;;;;5054768;28;20458;-71
2020/12/02 10:29:18;;;;;;;11.93;8.03;;;7.00;99.90;;;;;;5048277;28;20554;-70
2020/12/02 10:32:05;;;;;;;6.77;5.73;;;7.00;99.90;;;;;;5043979;28;20428;-70
2020/12/02 10:34:38;;;;;;;7.50;6.33;;;7.00;99.90;;;;;;5041250;28;20425;-71
2020/12/02 10:37:15;;;;;;;7.07;5.10;;;7.00;99.90;;;;;;5039954;28;20413;-71
2020/12/02 10:39:41;;;;;;;5.27;4.77;;;7.10;99.90;;;;;;5040660;28;20482;-71
2020/12/02 10:42:44;;;;;;;5.10;4.70;;;7.10;99.90;;;;;;5045609;28;20425;-71
2020/12/02 10:45:20;;;;;;;5.93;5.30;;;7.10;99.90;;;;;;5049707;28;20192;-72
2020/12/02 10:47:52;;;;;;;5.50;5.00;;;7.10;99.90;;;;;;5045617;28;20554;-72
2020/12/02 10:50:21;;;;;;;5.03;4.53;;;7.20;99.90;;;;;;5047544;28;20449;-73
2020/12/02 10:52:49;;;;;;;4.97;4.47;;;7.10;99.90;;;;;;5048058;28;20425;-71
2020/12/02 10:55:20;;;;;;;6.93;5.70;;;7.10;99.90;;;;;;5054348;28;20512;-72
2020/12/02 10:57:55;;;;;;;5.83;5.33;;;7.20;99.90;;;;;;5041695;28;20448;-73
2020/12/02 11:00:21;;;;;;;6.50;5.90;;;7.10;99.90;;;;;;5051400;28;20824;-73
2020/12/02 11:02:47;;;;;;;8.53;6.20;;;7.10;99.90;;;;;;5051562;28;20508;-72
2020/12/02 11:05:13;;;;;;;7.03;6.33;;;7.10;99.90;;;;;;5043867;28;20511;-72
2020/12/02 11:07:54;;;;;;;14.20;9.70;;;7.00;99.90;;;;;;5056377;28;20528;-73
2020/12/02 11:11:00;;;;;;;9.80;8.17;;;7.10;99.90;;;;;;5049278;28;20581;-72
2020/12/02 11:13:32;;;;;;;8.00;6.97;;;7.00;99.90;;;;;;5034797;28;20439;-73
2020/12/02 11:16:07;;;;;;;11.30;8.50;;;7.10;99.90;;;;;;5046140;28;20593;-73
2020/12/02 11:19:01;;;;;;;9.93;8.30;;;7.10;99.90;;;;;;5042588;28;20445;-73
2020/12/02 11:21:49;;;;;;;9.97;8.60;;;7.10;99.90;;;;;;5044700;28;20506;-73
2020/12/02 11:24:41;;;;;;;9.83;8.30;;;7.10;99.90;;;;;;5045709;28;20863;-73
2020/12/02 11:27:07;;;;;;;9.37;8.33;;;7.10;99.90;;;;;;5035711;28;20452;-73
2020/12/02 11:29:32;;;;;;;11.60;9.33;;;7.00;99.90;;;;;;5050202;28;20472;-73
2020/12/02 11:31:58;;;;;;;9.37;7.33;;;7.00;99.90;;;;;;5050612;28;20208;-71
2020/12/02 11:34:43;;;;;;;11.07;8.50;;;6.90;99.90;;;;;;5047939;28;20239;-72
2020/12/02 11:37:13;;;;;;;8.33;7.50;;;6.90;99.90;;;;;;5048044;28;20209;-72
2020/12/02 11:39:53;;;;;;;7.83;7.03;;;7.00;99.90;;;;;;5039490;28;20449;-73
2020/12/02 11:42:37;;;;;;;7.53;6.73;;;7.10;99.90;;;;;;5046337;28;20420;-72
2020/12/02 11:45:11;;;;;;;7.93;7.13;;;7.10;99.90;;;;;;5051691;28;20474;-73
2020/12/02 11:47:47;;;;;;;9.23;7.63;;;7.10;99.90;;;;;;5047362;28;20408;-73
2020/12/02 11:50:20;;;;;;;10.30;7.43;;;7.10;99.90;;;;;;5044461;28;20432;-73
2020/12/02 11:52:46;;;;;;;10.20;7.33;;;7.20;99.90;;;;;;5048423;28;20421;-72
2020/12/02 11:55:14;;;;;;;8.77;7.90;;;7.20;99.90;;;;;;5040217;28;20427;-72
2020/12/02 11:57:47;;;;;;;9.10;6.80;;;7.20;99.90;;;;;;5048468;28;20179;-72
2020/12/02 12:00:13;;;;;;;8.40;7.13;;;7.10;99.90;;;;;;5040828;28;20539;-72
2020/12/02 12:03:03;;;;;;;10.03;7.83;;;7.10;99.90;;;;;;5049070;28;21184;-72
2020/12/02 12:05:52;;;;;;;8.80;6.90;;;7.10;99.90;;;;;;5043747;28;20565;-72
2020/12/02 12:08:20;;;;;;;8.73;7.27;;;7.10;99.90;;;;;;5048206;28;20463;-72
2020/12/02 12:10:58;;;;;;;9.40;7.60;;;7.10;99.90;;;;;;5043800;28;20433;-72
2020/12/02 12:13:30;;;;;;;9.60;8.23;;;7.10;99.90;;;;;;5050508;28;20908;-72
2020/12/02 12:16:14;;;;;;;8.40;7.00;;;7.20;99.90;;;;;;5054040;28;20753;-72
2020/12/02 12:18:40;;;;;;;7.80;7.00;;;7.20;99.90;;;;;;5040533;28;20440;-72
2020/12/02 12:21:10;;;;;;;8.90;8.00;;;7.20;99.90;;;;;;5047124;28;20456;-72
2020/12/02 12:24:00;;;;;;;7.63;6.83;;;7.20;99.90;;;;;;5044365;28;20413;-71
2020/12/02 12:26:29;;;;;;;9.77;7.40;;;7.20;99.90;;;;;;5051626;28;20416;-73
2020/12/02 12:28:55;;;;;;;9.27;7.63;;;7.20;99.90;;;;;;5043596;28;20560;-72
2020/12/02 12:31:39;;;;;;;7.83;7.03;;;7.10;99.90;;;;;;5044915;28;20425;-72
2020/12/02 12:34:23;;;;;;;8.13;7.00;;;7.10;99.90;;;;;;5046955;28;20423;-73
2020/12/02 12:36:55;;;;;;;8.93;8.13;;;7.20;99.90;;;;;;5050991;28;20425;-72
2020/12/02 12:39:42;;;;;;;10.10;8.97;;;7.10;99.90;;;;;;5052169;28;21055;-73
2020/12/02 12:42:12;;;;;;;10.40;8.27;;;7.00;99.90;;;;;;5054257;28;20447;-72
2020/12/02 12:44:39;;;;;;;10.10;8.53;;;6.80;99.90;;;;;;5045167;28;20783;-72
2020/12/02 12:47:25;;;;;;;9.13;7.93;;;6.80;99.90;;;;;;5048126;28;21016;-73
2020/12/02 12:49:52;;;;;;;9.80;8.33;;;6.80;99.90;;;;;;5042553;28;20436;-72
2020/12/02 12:52:25;;;;;;;10.47;9.23;;;6.80;99.90;;;;;;5046932;28;20432;-73
2020/12/02 12:54:50;;;;;;;9.93;9.00;;;6.80;99.90;;;;;;5053818;28;20493;-72
2020/12/02 12:57:20;;;;;;;9.50;8.50;;;6.90;99.90;;;;;;5046239;28;20479;-72
2020/12/02 12:59:46;;;;;;;9.17;8.20;;;6.90;99.90;;;;;;5051177;28;20274;-72
2020/12/02 13:02:26;;;;;;;9.97;8.50;;;6.90;99.90;;;;;;5042584;28;20984;-73
2020/12/02 13:04:52;;;;;;;11.50;8.77;;;6.80;99.90;;;;;;5053279;28;20480;-72
2020/12/02 13:07:19;;;;;;;9.10;8.10;;;6.80;99.90;;;;;;5053075;28;20785;-73
2020/12/02 13:10:00;;;;;;;9.03;8.13;;;6.90;99.90;;;;;;5049703;28;20554;-72